Bloomington, Minnesota
Current Conditions -  °F | °C
As of 7:53 AM on Friday 19 Dec 2014 (Local Time) from KMSP Reporting Station
Overcast Overcast  
Wind Chill: 16°   Ceiling: 1900
Heat Index: 23°   Visibility: 8mi
Dew Point: 18°   Wind: 6mph
Humidity: 81%   Direction: 140°SE
Pressure: 30.25"   Gusts: NA
Location:  44.82°N, 93.31°W
Report Text: KMSP 191353Z 14005KT 8SM OVC019 M05/M08 A3025 RMK AO2 SNB02E22 SLP258 P0000 T10501078
Loading
Personal Weather Stations






























Interactive Weather Map New forecast layout! Learn more

10-Day Weather Forecast

Advertisements
Track Severe Weather on mobile